sensor_id;sensor_type;location;lat;lon;timestamp;P1;durP1;ratioP1;P2;durP2;ratioP2
15132;SDS011;7667;51.232;17.110;2023-10-19T00:00:49;25.27;;;19.00;;
15132;SDS011;7667;51.232;17.110;2023-10-19T00:03:18;26.03;;;19.50;;
15132;SDS011;7667;51.232;17.110;2023-10-19T00:05:46;23.57;;;18.53;;
15132;SDS011;7667;51.232;17.110;2023-10-19T00:08:14;21.10;;;16.60;;
15132;SDS011;7667;51.232;17.110;2023-10-19T00:10:47;21.10;;;17.03;;
15132;SDS011;7667;51.232;17.110;2023-10-19T00:13:31;22.23;;;16.43;;
15132;SDS011;7667;51.232;17.110;2023-10-19T00:16:02;20.53;;;16.03;;
15132;SDS011;7667;51.232;17.110;2023-10-19T00:18:44;22.17;;;15.77;;
15132;SDS011;7667;51.232;17.110;2023-10-19T00:21:16;19.17;;;15.27;;
15132;SDS011;7667;51.232;17.110;2023-10-19T00:23:54;19.97;;;15.47;;
15132;SDS011;7667;51.232;17.110;2023-10-19T00:26:25;18.90;;;14.80;;
15132;SDS011;7667;51.232;17.110;2023-10-19T00:28:56;19.90;;;16.10;;
15132;SDS011;7667;51.232;17.110;2023-10-19T00:31:24;21.00;;;16.33;;
15132;SDS011;7667;51.232;17.110;2023-10-19T00:34:00;18.40;;;15.17;;
15132;SDS011;7667;51.232;17.110;2023-10-19T00:36:30;18.80;;;14.73;;
15132;SDS011;7667;51.232;17.110;2023-10-19T00:38:58;19.00;;;14.20;;
15132;SDS011;7667;51.232;17.110;2023-10-19T00:41:27;19.83;;;14.27;;
15132;SDS011;7667;51.232;17.110;2023-10-19T00:43:58;19.00;;;14.27;;
15132;SDS011;7667;51.232;17.110;2023-10-19T00:46:39;18.83;;;14.13;;
15132;SDS011;7667;51.232;17.110;2023-10-19T00:49:13;17.63;;;14.37;;
15132;SDS011;7667;51.232;17.110;2023-10-19T00:51:45;19.70;;;14.77;;
15132;SDS011;7667;51.232;17.110;2023-10-19T00:54:23;17.80;;;14.63;;
15132;SDS011;7667;51.232;17.110;2023-10-19T00:57:18;18.83;;;14.90;;
15132;SDS011;7667;51.232;17.110;2023-10-19T01:00:00;17.90;;;14.33;;
15132;SDS011;7667;51.232;17.110;2023-10-19T01:02:41;19.97;;;14.87;;
15132;SDS011;7667;51.232;17.110;2023-10-19T01:05:13;19.90;;;16.00;;
15132;SDS011;7667;51.232;17.110;2023-10-19T01:07:40;19.17;;;15.73;;
15132;SDS011;7667;51.232;17.110;2023-10-19T01:10:11;20.63;;;16.23;;
15132;SDS011;7667;51.232;17.110;2023-10-19T01:12:47;22.93;;;16.90;;
15132;SDS011;7667;51.232;17.110;2023-10-19T01:15:17;22.27;;;17.03;;
15132;SDS011;7667;51.232;17.110;2023-10-19T01:17:52;21.27;;;15.90;;
15132;SDS011;7667;51.232;17.110;2023-10-19T01:20:25;18.07;;;15.10;;
15132;SDS011;7667;51.232;17.110;2023-10-19T01:28:30;22.33;;;16.00;;
15132;SDS011;7667;51.232;17.110;2023-10-19T01:31:19;24.00;;;17.07;;
15132;SDS011;7667;51.232;17.110;2023-10-19T01:33:58;23.17;;;16.53;;
15132;SDS011;7667;51.232;17.110;2023-10-19T01:36:36;19.60;;;16.73;;
15132;SDS011;7667;51.232;17.110;2023-10-19T01:39:09;21.50;;;16.50;;
15132;SDS011;7667;51.232;17.110;2023-10-19T01:41:38;20.13;;;16.03;;
15132;SDS011;7667;51.232;17.110;2023-10-19T01:44:08;19.60;;;15.50;;
15132;SDS011;7667;51.232;17.110;2023-10-19T01:46:41;19.97;;;15.70;;
15132;SDS011;7667;51.232;17.110;2023-10-19T01:49:12;18.40;;;15.40;;
15132;SDS011;7667;51.232;17.110;2023-10-19T01:51:40;22.83;;;17.53;;
15132;SDS011;7667;51.232;17.110;2023-10-19T01:54:10;25.43;;;17.63;;
15132;SDS011;7667;51.232;17.110;2023-10-19T01:56:38;20.63;;;15.67;;
15132;SDS011;7667;51.232;17.110;2023-10-19T01:59:10;23.03;;;16.03;;
15132;SDS011;7667;51.232;17.110;2023-10-19T02:01:38;23.10;;;16.23;;
15132;SDS011;7667;51.232;17.110;2023-10-19T02:04:08;20.27;;;15.87;;
15132;SDS011;7667;51.232;17.110;2023-10-19T02:06:36;19.47;;;15.07;;
15132;SDS011;7667;51.232;17.110;2023-10-19T02:09:12;18.97;;;14.60;;
15132;SDS011;7667;51.232;17.110;2023-10-19T02:11:56;19.43;;;14.70;;
15132;SDS011;7667;51.232;17.110;2023-10-19T02:14:25;18.93;;;14.50;;
15132;SDS011;7667;51.232;17.110;2023-10-19T02:16:59;19.53;;;15.10;;
15132;SDS011;7667;51.232;17.110;2023-10-19T02:19:29;19.13;;;15.13;;
15132;SDS011;7667;51.232;17.110;2023-10-19T02:21:57;19.00;;;15.37;;
15132;SDS011;7667;51.232;17.110;2023-10-19T02:24:30;20.07;;;15.67;;
15132;SDS011;7667;51.232;17.110;2023-10-19T02:26:59;22.07;;;15.63;;
15132;SDS011;7667;51.232;17.110;2023-10-19T02:29:31;20.73;;;16.47;;
15132;SDS011;7667;51.232;17.110;2023-10-19T02:31:59;20.93;;;15.30;;
15132;SDS011;7667;51.232;17.110;2023-10-19T02:34:32;19.83;;;15.10;;
15132;SDS011;7667;51.232;17.110;2023-10-19T02:37:01;21.33;;;15.13;;
15132;SDS011;7667;51.232;17.110;2023-10-19T02:39:29;19.90;;;15.40;;
15132;SDS011;7667;51.232;17.110;2023-10-19T02:41:57;22.70;;;15.80;;
15132;SDS011;7667;51.232;17.110;2023-10-19T02:44:28;22.53;;;15.93;;
15132;SDS011;7667;51.232;17.110;2023-10-19T02:46:57;20.53;;;15.77;;
15132;SDS011;7667;51.232;17.110;2023-10-19T02:49:27;20.27;;;14.97;;
15132;SDS011;7667;51.232;17.110;2023-10-19T02:51:56;22.03;;;16.43;;
15132;SDS011;7667;51.232;17.110;2023-10-19T02:54:30;21.07;;;15.97;;
15132;SDS011;7667;51.232;17.110;2023-10-19T02:57:02;21.50;;;16.93;;
15132;SDS011;7667;51.232;17.110;2023-10-19T02:59:34;20.53;;;16.60;;
15132;SDS011;7667;51.232;17.110;2023-10-19T03:02:02;17.97;;;15.10;;
15132;SDS011;7667;51.232;17.110;2023-10-19T03:04:39;21.60;;;16.53;;
15132;SDS011;7667;51.232;17.110;2023-10-19T03:07:08;20.70;;;15.60;;
15132;SDS011;7667;51.232;17.110;2023-10-19T03:09:38;20.63;;;16.40;;
15132;SDS011;7667;51.232;17.110;2023-10-19T03:12:06;18.73;;;15.30;;
15132;SDS011;7667;51.232;17.110;2023-10-19T03:14:40;20.23;;;16.67;;
15132;SDS011;7667;51.232;17.110;2023-10-19T03:17:08;22.60;;;17.77;;
15132;SDS011;7667;51.232;17.110;2023-10-19T03:19:37;22.63;;;17.83;;
15132;SDS011;7667;51.232;17.110;2023-10-19T03:22:05;21.80;;;17.23;;
15132;SDS011;7667;51.232;17.110;2023-10-19T03:24:33;21.47;;;17.43;;
15132;SDS011;7667;51.232;17.110;2023-10-19T03:27:04;21.67;;;17.40;;
15132;SDS011;7667;51.232;17.110;2023-10-19T03:29:51;21.50;;;16.80;;
15132;SDS011;7667;51.232;17.110;2023-10-19T03:32:23;19.77;;;16.63;;
15132;SDS011;7667;51.232;17.110;2023-10-19T03:34:59;19.10;;;16.77;;
15132;SDS011;7667;51.232;17.110;2023-10-19T03:37:28;23.30;;;17.70;;
15132;SDS011;7667;51.232;17.110;2023-10-19T03:39:57;21.90;;;17.13;;
15132;SDS011;7667;51.232;17.110;2023-10-19T03:42:25;20.13;;;17.00;;
15132;SDS011;7667;51.232;17.110;2023-10-19T03:44:56;22.43;;;17.10;;
15132;SDS011;7667;51.232;17.110;2023-10-19T03:47:24;19.93;;;16.47;;
15132;SDS011;7667;51.232;17.110;2023-10-19T03:50:01;18.30;;;16.00;;
15132;SDS011;7667;51.232;17.110;2023-10-19T03:52:36;20.83;;;16.90;;
15132;SDS011;7667;51.232;17.110;2023-10-19T03:55:05;20.03;;;16.20;;
15132;SDS011;7667;51.232;17.110;2023-10-19T03:57:46;20.10;;;16.67;;
15132;SDS011;7667;51.232;17.110;2023-10-19T04:00:17;20.10;;;16.50;;
15132;SDS011;7667;51.232;17.110;2023-10-19T04:03:03;18.60;;;15.97;;
15132;SDS011;7667;51.232;17.110;2023-10-19T04:05:31;20.93;;;17.13;;
15132;SDS011;7667;51.232;17.110;2023-10-19T04:08:05;19.63;;;16.60;;
15132;SDS011;7667;51.232;17.110;2023-10-19T04:10:46;24.77;;;18.67;;
15132;SDS011;7667;51.232;17.110;2023-10-19T04:13:34;22.73;;;18.40;;
15132;SDS011;7667;51.232;17.110;2023-10-19T04:16:03;21.30;;;18.23;;
15132;SDS011;7667;51.232;17.110;2023-10-19T04:18:37;23.07;;;18.20;;
15132;SDS011;7667;51.232;17.110;2023-10-19T04:21:10;23.60;;;18.53;;
15132;SDS011;7667;51.232;17.110;2023-10-19T04:23:38;22.70;;;18.47;;
15132;SDS011;7667;51.232;17.110;2023-10-19T04:26:05;24.37;;;18.20;;
15132;SDS011;7667;51.232;17.110;2023-10-19T04:28:46;23.90;;;18.37;;
15132;SDS011;7667;51.232;17.110;2023-10-19T04:31:17;23.00;;;17.87;;
15132;SDS011;7667;51.232;17.110;2023-10-19T04:33:46;23.17;;;17.97;;
15132;SDS011;7667;51.232;17.110;2023-10-19T04:36:14;22.67;;;18.67;;
15132;SDS011;7667;51.232;17.110;2023-10-19T04:38:43;25.83;;;21.00;;
15132;SDS011;7667;51.232;17.110;2023-10-19T04:41:11;25.70;;;20.37;;
15132;SDS011;7667;51.232;17.110;2023-10-19T04:43:39;34.33;;;28.83;;
15132;SDS011;7667;51.232;17.110;2023-10-19T04:46:07;32.47;;;26.23;;
15132;SDS011;7667;51.232;17.110;2023-10-19T04:48:40;28.30;;;23.17;;
15132;SDS011;7667;51.232;17.110;2023-10-19T04:51:09;23.40;;;20.23;;
15132;SDS011;7667;51.232;17.110;2023-10-19T04:53:38;21.77;;;17.87;;
15132;SDS011;7667;51.232;17.110;2023-10-19T04:56:07;21.10;;;16.80;;
15132;SDS011;7667;51.232;17.110;2023-10-19T04:58:36;22.40;;;18.07;;
15132;SDS011;7667;51.232;17.110;2023-10-19T05:01:04;21.87;;;17.07;;
15132;SDS011;7667;51.232;17.110;2023-10-19T05:03:32;21.67;;;18.13;;
15132;SDS011;7667;51.232;17.110;2023-10-19T05:06:00;38.43;;;27.43;;
15132;SDS011;7667;51.232;17.110;2023-10-19T05:08:28;30.97;;;23.93;;
15132;SDS011;7667;51.232;17.110;2023-10-19T05:10:56;31.30;;;22.97;;
15132;SDS011;7667;51.232;17.110;2023-10-19T05:13:26;29.13;;;23.17;;
15132;SDS011;7667;51.232;17.110;2023-10-19T05:15:54;21.80;;;19.43;;
15132;SDS011;7667;51.232;17.110;2023-10-19T05:18:23;30.43;;;20.67;;
15132;SDS011;7667;51.232;17.110;2023-10-19T05:20:50;23.23;;;18.93;;
15132;SDS011;7667;51.232;17.110;2023-10-19T05:23:25;26.23;;;20.30;;
15132;SDS011;7667;51.232;17.110;2023-10-19T05:26:00;23.07;;;19.17;;
15132;SDS011;7667;51.232;17.110;2023-10-19T05:28:30;23.37;;;18.17;;
15132;SDS011;7667;51.232;17.110;2023-10-19T05:30:58;19.73;;;16.30;;
15132;SDS011;7667;51.232;17.110;2023-10-19T05:33:29;20.50;;;16.87;;
15132;SDS011;7667;51.232;17.110;2023-10-19T05:35:57;22.30;;;16.27;;
15132;SDS011;7667;51.232;17.110;2023-10-19T05:38:24;24.63;;;18.20;;
15132;SDS011;7667;51.232;17.110;2023-10-19T05:40:52;26.33;;;17.30;;
15132;SDS011;7667;51.232;17.110;2023-10-19T05:43:19;22.77;;;18.20;;
15132;SDS011;7667;51.232;17.110;2023-10-19T05:45:48;22.77;;;16.83;;
15132;SDS011;7667;51.232;17.110;2023-10-19T05:48:17;30.00;;;21.57;;
15132;SDS011;7667;51.232;17.110;2023-10-19T05:50:44;28.67;;;20.97;;
15132;SDS011;7667;51.232;17.110;2023-10-19T05:53:12;24.10;;;18.03;;
15132;SDS011;7667;51.232;17.110;2023-10-19T05:55:45;22.20;;;17.40;;
15132;SDS011;7667;51.232;17.110;2023-10-19T05:58:12;25.10;;;18.90;;
15132;SDS011;7667;51.232;17.110;2023-10-19T06:00:41;23.47;;;18.30;;
15132;SDS011;7667;51.232;17.110;2023-10-19T06:03:09;24.17;;;17.90;;
15132;SDS011;7667;51.232;17.110;2023-10-19T06:05:37;28.27;;;20.80;;
15132;SDS011;7667;51.232;17.110;2023-10-19T06:08:04;25.07;;;19.23;;
15132;SDS011;7667;51.232;17.110;2023-10-19T06:10:32;22.77;;;18.37;;
15132;SDS011;7667;51.232;17.110;2023-10-19T06:13:00;24.53;;;18.20;;
15132;SDS011;7667;51.232;17.110;2023-10-19T06:15:28;22.37;;;16.47;;
15132;SDS011;7667;51.232;17.110;2023-10-19T06:17:57;25.63;;;18.90;;
15132;SDS011;7667;51.232;17.110;2023-10-19T06:20:25;25.47;;;19.20;;
15132;SDS011;7667;51.232;17.110;2023-10-19T06:22:54;23.80;;;17.30;;
15132;SDS011;7667;51.232;17.110;2023-10-19T06:25:32;22.07;;;18.00;;
15132;SDS011;7667;51.232;17.110;2023-10-19T06:28:03;22.47;;;17.13;;
15132;SDS011;7667;51.232;17.110;2023-10-19T06:30:31;21.73;;;16.47;;
15132;SDS011;7667;51.232;17.110;2023-10-19T06:33:00;20.30;;;16.07;;
15132;SDS011;7667;51.232;17.110;2023-10-19T06:35:29;20.87;;;16.57;;
15132;SDS011;7667;51.232;17.110;2023-10-19T06:37:59;24.83;;;19.57;;
15132;SDS011;7667;51.232;17.110;2023-10-19T06:40:27;20.53;;;16.63;;
15132;SDS011;7667;51.232;17.110;2023-10-19T06:42:55;22.43;;;17.03;;
15132;SDS011;7667;51.232;17.110;2023-10-19T06:45:25;30.43;;;21.23;;
15132;SDS011;7667;51.232;17.110;2023-10-19T06:47:53;25.37;;;19.23;;
15132;SDS011;7667;51.232;17.110;2023-10-19T06:50:21;25.13;;;18.57;;
15132;SDS011;7667;51.232;17.110;2023-10-19T06:52:50;25.47;;;19.57;;
15132;SDS011;7667;51.232;17.110;2023-10-19T06:55:21;21.30;;;17.53;;
15132;SDS011;7667;51.232;17.110;2023-10-19T06:57:52;21.10;;;15.87;;
15132;SDS011;7667;51.232;17.110;2023-10-19T07:00:23;18.70;;;15.07;;
15132;SDS011;7667;51.232;17.110;2023-10-19T07:02:55;16.97;;;14.07;;
15132;SDS011;7667;51.232;17.110;2023-10-19T07:05:26;19.87;;;14.13;;
15132;SDS011;7667;51.232;17.110;2023-10-19T07:07:57;19.60;;;13.57;;
15132;SDS011;7667;51.232;17.110;2023-10-19T07:10:26;17.77;;;13.53;;
15132;SDS011;7667;51.232;17.110;2023-10-19T07:12:55;19.83;;;15.17;;
15132;SDS011;7667;51.232;17.110;2023-10-19T07:15:24;26.27;;;18.63;;
15132;SDS011;7667;51.232;17.110;2023-10-19T07:17:53;22.90;;;18.23;;
15132;SDS011;7667;51.232;17.110;2023-10-19T07:20:21;25.07;;;17.00;;
15132;SDS011;7667;51.232;17.110;2023-10-19T07:22:59;22.80;;;16.37;;
15132;SDS011;7667;51.232;17.110;2023-10-19T07:25:46;21.70;;;15.73;;
15132;SDS011;7667;51.232;17.110;2023-10-19T07:28:15;20.40;;;14.60;;
15132;SDS011;7667;51.232;17.110;2023-10-19T07:30:44;18.70;;;14.13;;
15132;SDS011;7667;51.232;17.110;2023-10-19T07:33:13;17.50;;;13.63;;
15132;SDS011;7667;51.232;17.110;2023-10-19T07:35:44;18.97;;;13.37;;
15132;SDS011;7667;51.232;17.110;2023-10-19T07:38:14;15.77;;;12.97;;
15132;SDS011;7667;51.232;17.110;2023-10-19T07:40:43;16.50;;;12.93;;
15132;SDS011;7667;51.232;17.110;2023-10-19T07:43:11;16.60;;;12.87;;
15132;SDS011;7667;51.232;17.110;2023-10-19T07:45:38;16.40;;;12.57;;
15132;SDS011;7667;51.232;17.110;2023-10-19T07:48:06;15.23;;;12.43;;
15132;SDS011;7667;51.232;17.110;2023-10-19T07:50:34;15.73;;;12.53;;
15132;SDS011;7667;51.232;17.110;2023-10-19T07:53:03;15.20;;;13.00;;
15132;SDS011;7667;51.232;17.110;2023-10-19T07:55:31;15.73;;;12.30;;
15132;SDS011;7667;51.232;17.110;2023-10-19T07:57:59;14.90;;;13.07;;
15132;SDS011;7667;51.232;17.110;2023-10-19T08:00:28;15.63;;;12.43;;
15132;SDS011;7667;51.232;17.110;2023-10-19T08:02:56;21.33;;;14.57;;
15132;SDS011;7667;51.232;17.110;2023-10-19T08:05:25;21.13;;;14.50;;
15132;SDS011;7667;51.232;17.110;2023-10-19T08:07:53;19.17;;;13.50;;
15132;SDS011;7667;51.232;17.110;2023-10-19T08:10:21;20.43;;;14.70;;
15132;SDS011;7667;51.232;17.110;2023-10-19T08:12:48;17.83;;;13.23;;
15132;SDS011;7667;51.232;17.110;2023-10-19T08:15:16;14.50;;;11.57;;
15132;SDS011;7667;51.232;17.110;2023-10-19T08:17:47;14.40;;;10.77;;
15132;SDS011;7667;51.232;17.110;2023-10-19T08:20:17;13.27;;;11.27;;
15132;SDS011;7667;51.232;17.110;2023-10-19T08:22:53;13.37;;;10.67;;
15132;SDS011;7667;51.232;17.110;2023-10-19T08:25:24;14.00;;;10.80;;
15132;SDS011;7667;51.232;17.110;2023-10-19T08:28:15;12.80;;;10.33;;
15132;SDS011;7667;51.232;17.110;2023-10-19T08:30:44;12.90;;;10.97;;
15132;SDS011;7667;51.232;17.110;2023-10-19T08:33:24;14.03;;;10.73;;
15132;SDS011;7667;51.232;17.110;2023-10-19T08:35:53;14.23;;;10.17;;
15132;SDS011;7667;51.232;17.110;2023-10-19T08:38:21;11.97;;;10.73;;
15132;SDS011;7667;51.232;17.110;2023-10-19T08:40:49;12.10;;;10.20;;
15132;SDS011;7667;51.232;17.110;2023-10-19T08:43:18;15.30;;;10.37;;
15132;SDS011;7667;51.232;17.110;2023-10-19T08:45:46;12.67;;;10.27;;
15132;SDS011;7667;51.232;17.110;2023-10-19T08:48:14;14.77;;;10.50;;
15132;SDS011;7667;51.232;17.110;2023-10-19T08:50:41;13.73;;;10.83;;
15132;SDS011;7667;51.232;17.110;2023-10-19T08:53:10;14.67;;;11.17;;
15132;SDS011;7667;51.232;17.110;2023-10-19T08:55:41;15.43;;;11.10;;
15132;SDS011;7667;51.232;17.110;2023-10-19T08:58:16;15.27;;;11.57;;
15132;SDS011;7667;51.232;17.110;2023-10-19T09:00:47;18.10;;;12.87;;
15132;SDS011;7667;51.232;17.110;2023-10-19T09:03:24;15.93;;;12.23;;
15132;SDS011;7667;51.232;17.110;2023-10-19T09:05:53;17.10;;;12.17;;
15132;SDS011;7667;51.232;17.110;2023-10-19T09:08:21;20.57;;;12.47;;
15132;SDS011;7667;51.232;17.110;2023-10-19T09:10:50;16.80;;;12.90;;
15132;SDS011;7667;51.232;17.110;2023-10-19T09:13:22;17.27;;;12.83;;
15132;SDS011;7667;51.232;17.110;2023-10-19T09:15:52;16.43;;;12.33;;
15132;SDS011;7667;51.232;17.110;2023-10-19T09:18:24;14.40;;;11.57;;
15132;SDS011;7667;51.232;17.110;2023-10-19T09:20:57;16.60;;;11.90;;
15132;SDS011;7667;51.232;17.110;2023-10-19T09:23:47;13.37;;;11.77;;
15132;SDS011;7667;51.232;17.110;2023-10-19T09:26:16;14.80;;;11.90;;
15132;SDS011;7667;51.232;17.110;2023-10-19T09:28:48;14.20;;;12.07;;
15132;SDS011;7667;51.232;17.110;2023-10-19T09:31:18;16.60;;;13.40;;
15132;SDS011;7667;51.232;17.110;2023-10-19T09:33:47;15.40;;;12.57;;
15132;SDS011;7667;51.232;17.110;2023-10-19T09:36:20;14.47;;;12.17;;
15132;SDS011;7667;51.232;17.110;2023-10-19T09:38:50;13.20;;;11.77;;
15132;SDS011;7667;51.232;17.110;2023-10-19T09:41:21;16.30;;;13.53;;
15132;SDS011;7667;51.232;17.110;2023-10-19T09:43:49;14.20;;;12.30;;
15132;SDS011;7667;51.232;17.110;2023-10-19T09:46:20;19.90;;;14.57;;
15132;SDS011;7667;51.232;17.110;2023-10-19T09:48:56;16.10;;;13.23;;
15132;SDS011;7667;51.232;17.110;2023-10-19T09:51:23;14.70;;;12.23;;
15132;SDS011;7667;51.232;17.110;2023-10-19T09:53:59;15.43;;;12.43;;
15132;SDS011;7667;51.232;17.110;2023-10-19T09:56:36;15.80;;;12.70;;
15132;SDS011;7667;51.232;17.110;2023-10-19T09:59:22;17.37;;;13.73;;
15132;SDS011;7667;51.232;17.110;2023-10-19T10:04:41;17.97;;;14.40;;
15132;SDS011;7667;51.232;17.110;2023-10-19T10:07:13;15.00;;;13.40;;
15132;SDS011;7667;51.232;17.110;2023-10-19T10:10:02;15.53;;;13.83;;
15132;SDS011;7667;51.232;17.110;2023-10-19T10:12:31;17.93;;;14.13;;
15132;SDS011;7667;51.232;17.110;2023-10-19T10:15:05;16.20;;;14.27;;
15132;SDS011;7667;51.232;17.110;2023-10-19T10:17:37;17.67;;;14.47;;
15132;SDS011;7667;51.232;17.110;2023-10-19T10:22:44;16.87;;;14.20;;
15132;SDS011;7667;51.232;17.110;2023-10-19T10:25:38;17.20;;;14.67;;
15132;SDS011;7667;51.232;17.110;2023-10-19T10:28:06;17.90;;;14.90;;
15132;SDS011;7667;51.232;17.110;2023-10-19T10:30:36;17.17;;;14.70;;
15132;SDS011;7667;51.232;17.110;2023-10-19T10:33:03;18.27;;;14.70;;
15132;SDS011;7667;51.232;17.110;2023-10-19T10:38:10;18.37;;;14.63;;
15132;SDS011;7667;51.232;17.110;2023-10-19T10:40:45;17.17;;;14.80;;
15132;SDS011;7667;51.232;17.110;2023-10-19T10:43:17;17.23;;;14.23;;
15132;SDS011;7667;51.232;17.110;2023-10-19T10:45:46;18.50;;;14.63;;
15132;SDS011;7667;51.232;17.110;2023-10-19T10:48:14;18.07;;;15.03;;
15132;SDS011;7667;51.232;17.110;2023-10-19T10:50:44;18.57;;;15.37;;
15132;SDS011;7667;51.232;17.110;2023-10-19T10:53:14;18.07;;;14.77;;
15132;SDS011;7667;51.232;17.110;2023-10-19T10:55:42;16.33;;;14.10;;
15132;SDS011;7667;51.232;17.110;2023-10-19T10:58:14;16.27;;;14.33;;
15132;SDS011;7667;51.232;17.110;2023-10-19T11:00:43;17.27;;;14.30;;
15132;SDS011;7667;51.232;17.110;2023-10-19T11:03:14;17.00;;;14.60;;
15132;SDS011;7667;51.232;17.110;2023-10-19T11:05:43;17.40;;;14.33;;
15132;SDS011;7667;51.232;17.110;2023-10-19T11:08:14;17.60;;;15.43;;
15132;SDS011;7667;51.232;17.110;2023-10-19T11:10:44;17.33;;;13.87;;
15132;SDS011;7667;51.232;17.110;2023-10-19T11:13:17;18.90;;;15.43;;
15132;SDS011;7667;51.232;17.110;2023-10-19T11:15:51;17.00;;;15.20;;
15132;SDS011;7667;51.232;17.110;2023-10-19T11:18:29;15.80;;;14.13;;
15132;SDS011;7667;51.232;17.110;2023-10-19T11:21:10;18.77;;;15.20;;
15132;SDS011;7667;51.232;17.110;2023-10-19T11:26:11;18.37;;;15.33;;
15132;SDS011;7667;51.232;17.110;2023-10-19T11:28:41;20.73;;;14.80;;
15132;SDS011;7667;51.232;17.110;2023-10-19T11:31:18;24.90;;;17.03;;
15132;SDS011;7667;51.232;17.110;2023-10-19T11:33:51;23.43;;;17.40;;
15132;SDS011;7667;51.232;17.110;2023-10-19T11:36:20;20.47;;;17.07;;
15132;SDS011;7667;51.232;17.110;2023-10-19T11:38:50;22.30;;;19.13;;
15132;SDS011;7667;51.232;17.110;2023-10-19T11:41:19;22.40;;;19.10;;
15132;SDS011;7667;51.232;17.110;2023-10-19T11:43:47;23.80;;;19.43;;
15132;SDS011;7667;51.232;17.110;2023-10-19T11:46:16;27.67;;;22.30;;
15132;SDS011;7667;51.232;17.110;2023-10-19T11:48:45;19.90;;;16.20;;
15132;SDS011;7667;51.232;17.110;2023-10-19T11:51:13;18.50;;;15.50;;
15132;SDS011;7667;51.232;17.110;2023-10-19T11:53:42;20.43;;;16.03;;
15132;SDS011;7667;51.232;17.110;2023-10-19T11:56:10;18.00;;;16.10;;
15132;SDS011;7667;51.232;17.110;2023-10-19T11:58:40;19.30;;;15.57;;
15132;SDS011;7667;51.232;17.110;2023-10-19T12:01:14;17.70;;;15.73;;
15132;SDS011;7667;51.232;17.110;2023-10-19T12:03:44;19.43;;;16.80;;
15132;SDS011;7667;51.232;17.110;2023-10-19T12:06:13;17.43;;;15.60;;
15132;SDS011;7667;51.232;17.110;2023-10-19T12:08:50;18.03;;;15.07;;
15132;SDS011;7667;51.232;17.110;2023-10-19T12:11:18;16.80;;;15.00;;
15132;SDS011;7667;51.232;17.110;2023-10-19T12:13:46;18.53;;;16.53;;
15132;SDS011;7667;51.232;17.110;2023-10-19T12:16:14;21.83;;;19.07;;
15132;SDS011;7667;51.232;17.110;2023-10-19T12:18:43;22.30;;;19.90;;
15132;SDS011;7667;51.232;17.110;2023-10-19T12:21:13;18.20;;;16.27;;
15132;SDS011;7667;51.232;17.110;2023-10-19T12:23:41;21.10;;;18.37;;
15132;SDS011;7667;51.232;17.110;2023-10-19T12:26:10;19.70;;;16.20;;
15132;SDS011;7667;51.232;17.110;2023-10-19T12:28:38;20.23;;;16.27;;
15132;SDS011;7667;51.232;17.110;2023-10-19T12:31:08;18.57;;;16.03;;
15132;SDS011;7667;51.232;17.110;2023-10-19T12:33:36;18.03;;;16.13;;
15132;SDS011;7667;51.232;17.110;2023-10-19T12:36:08;18.63;;;16.47;;
15132;SDS011;7667;51.232;17.110;2023-10-19T12:38:54;20.03;;;17.40;;
15132;SDS011;7667;51.232;17.110;2023-10-19T12:41:22;21.60;;;18.30;;
15132;SDS011;7667;51.232;17.110;2023-10-19T12:43:51;28.43;;;23.30;;
15132;SDS011;7667;51.232;17.110;2023-10-19T12:46:20;26.03;;;21.33;;
15132;SDS011;7667;51.232;17.110;2023-10-19T12:48:52;24.90;;;22.20;;
15132;SDS011;7667;51.232;17.110;2023-10-19T12:51:21;21.33;;;19.07;;
15132;SDS011;7667;51.232;17.110;2023-10-19T12:53:52;24.70;;;20.80;;
15132;SDS011;7667;51.232;17.110;2023-10-19T12:56:22;21.13;;;18.63;;
15132;SDS011;7667;51.232;17.110;2023-10-19T12:58:56;20.37;;;17.80;;
15132;SDS011;7667;51.232;17.110;2023-10-19T13:01:23;20.73;;;18.17;;
15132;SDS011;7667;51.232;17.110;2023-10-19T13:03:51;21.93;;;19.37;;
15132;SDS011;7667;51.232;17.110;2023-10-19T13:06:19;22.40;;;19.90;;
15132;SDS011;7667;51.232;17.110;2023-10-19T13:08:47;20.87;;;18.53;;
15132;SDS011;7667;51.232;17.110;2023-10-19T13:11:14;23.20;;;20.23;;
15132;SDS011;7667;51.232;17.110;2023-10-19T13:13:45;25.10;;;20.27;;
15132;SDS011;7667;51.232;17.110;2023-10-19T13:16:14;28.13;;;22.77;;
15132;SDS011;7667;51.232;17.110;2023-10-19T13:18:43;22.93;;;18.57;;
15132;SDS011;7667;51.232;17.110;2023-10-19T13:21:10;21.97;;;19.33;;
15132;SDS011;7667;51.232;17.110;2023-10-19T13:23:44;19.90;;;17.83;;
15132;SDS011;7667;51.232;17.110;2023-10-19T13:26:12;21.70;;;18.50;;
15132;SDS011;7667;51.232;17.110;2023-10-19T13:28:43;23.03;;;20.67;;
15132;SDS011;7667;51.232;17.110;2023-10-19T13:31:11;26.37;;;22.13;;
15132;SDS011;7667;51.232;17.110;2023-10-19T13:33:42;22.63;;;20.23;;
15132;SDS011;7667;51.232;17.110;2023-10-19T13:36:12;35.63;;;27.30;;
15132;SDS011;7667;51.232;17.110;2023-10-19T13:38:40;38.30;;;30.87;;
15132;SDS011;7667;51.232;17.110;2023-10-19T13:41:09;37.77;;;32.00;;
15132;SDS011;7667;51.232;17.110;2023-10-19T13:43:40;27.57;;;24.43;;
15132;SDS011;7667;51.232;17.110;2023-10-19T13:46:11;31.00;;;26.20;;
15132;SDS011;7667;51.232;17.110;2023-10-19T13:48:39;31.87;;;27.07;;
15132;SDS011;7667;51.232;17.110;2023-10-19T13:51:07;43.57;;;33.80;;
15132;SDS011;7667;51.232;17.110;2023-10-19T13:53:41;36.43;;;29.83;;
15132;SDS011;7667;51.232;17.110;2023-10-19T13:56:12;28.80;;;24.60;;
15132;SDS011;7667;51.232;17.110;2023-10-19T13:58:42;30.07;;;25.87;;
15132;SDS011;7667;51.232;17.110;2023-10-19T14:01:10;25.70;;;22.90;;
15132;SDS011;7667;51.232;17.110;2023-10-19T14:03:41;28.07;;;25.03;;
15132;SDS011;7667;51.232;17.110;2023-10-19T14:06:12;25.87;;;23.00;;
15132;SDS011;7667;51.232;17.110;2023-10-19T14:08:41;30.87;;;27.13;;
15132;SDS011;7667;51.232;17.110;2023-10-19T14:11:09;30.47;;;24.77;;
15132;SDS011;7667;51.232;17.110;2023-10-19T14:13:36;26.50;;;23.70;;
15132;SDS011;7667;51.232;17.110;2023-10-19T14:16:07;28.43;;;23.97;;
15132;SDS011;7667;51.232;17.110;2023-10-19T14:18:36;27.50;;;22.70;;
15132;SDS011;7667;51.232;17.110;2023-10-19T14:21:10;27.40;;;22.60;;
15132;SDS011;7667;51.232;17.110;2023-10-19T14:23:41;28.13;;;22.93;;
15132;SDS011;7667;51.232;17.110;2023-10-19T14:26:09;25.60;;;22.30;;
15132;SDS011;7667;51.232;17.110;2023-10-19T14:28:38;26.53;;;22.30;;
15132;SDS011;7667;51.232;17.110;2023-10-19T14:31:08;28.40;;;23.57;;
15132;SDS011;7667;51.232;17.110;2023-10-19T14:33:35;36.33;;;26.37;;
15132;SDS011;7667;51.232;17.110;2023-10-19T14:36:04;30.93;;;24.27;;
15132;SDS011;7667;51.232;17.110;2023-10-19T14:38:33;27.90;;;23.47;;
15132;SDS011;7667;51.232;17.110;2023-10-19T14:41:00;30.77;;;24.33;;
15132;SDS011;7667;51.232;17.110;2023-10-19T14:43:28;28.53;;;23.63;;
15132;SDS011;7667;51.232;17.110;2023-10-19T14:45:56;29.93;;;23.80;;
15132;SDS011;7667;51.232;17.110;2023-10-19T14:48:24;37.23;;;25.67;;
15132;SDS011;7667;51.232;17.110;2023-10-19T14:50:52;45.23;;;29.40;;
15132;SDS011;7667;51.232;17.110;2023-10-19T14:53:24;48.83;;;35.80;;
15132;SDS011;7667;51.232;17.110;2023-10-19T14:55:54;40.17;;;30.03;;
15132;SDS011;7667;51.232;17.110;2023-10-19T14:58:24;57.07;;;37.90;;